sensor_id;sensor_type;location;lat;lon;timestamp;pressure;altitude;pressure_sealevel;temperature;humidity
72414;BME280;60995;52.154;4.498;2023-04-21T00:00:43;101629.59;;;9.38;78.63
72414;BME280;60995;52.154;4.498;2023-04-21T00:02:59;101612.03;;;9.57;78.30
72414;BME280;60995;52.154;4.498;2023-04-21T00:05:16;101598.16;;;9.49;78.57
72414;BME280;60995;52.154;4.498;2023-04-21T00:07:32;101599.88;;;9.50;78.76
72414;BME280;60995;52.154;4.498;2023-04-21T00:09:48;101591.03;;;9.72;78.19
72414;BME280;60995;52.154;4.498;2023-04-21T00:12:05;101586.66;;;9.45;78.88
72414;BME280;60995;52.154;4.498;2023-04-21T00:14:21;101594.69;;;9.59;78.91
72414;BME280;60995;52.154;4.498;2023-04-21T00:16:37;101592.72;;;9.49;78.77
72414;BME280;60995;52.154;4.498;2023-04-21T00:18:54;101603.38;;;9.52;79.39
72414;BME280;60995;52.154;4.498;2023-04-21T00:21:10;101603.56;;;9.49;79.37
72414;BME280;60995;52.154;4.498;2023-04-21T00:23:26;101608.56;;;9.42;80.08
72414;BME280;60995;52.154;4.498;2023-04-21T00:25:42;101604.88;;;9.43;80.32
72414;BME280;60995;52.154;4.498;2023-04-21T00:27:59;101615.31;;;9.36;80.57
72414;BME280;60995;52.154;4.498;2023-04-21T00:30:15;101615.50;;;9.33;80.22
72414;BME280;60995;52.154;4.498;2023-04-21T00:32:32;101614.00;;;9.29;80.10
72414;BME280;60995;52.154;4.498;2023-04-21T00:34:48;101606.50;;;9.46;79.93
72414;BME280;60995;52.154;4.498;2023-04-21T00:37:04;101592.69;;;9.24;80.37
72414;BME280;60995;52.154;4.498;2023-04-21T00:39:20;101593.41;;;9.39;80.62
72414;BME280;60995;52.154;4.498;2023-04-21T00:41:37;101588.44;;;9.33;81.06
72414;BME280;60995;52.154;4.498;2023-04-21T00:44:01;101580.84;;;9.38;80.66
72414;BME280;60995;52.154;4.498;2023-04-21T00:46:19;101583.34;;;9.41;81.30
72414;BME280;60995;52.154;4.498;2023-04-21T00:48:36;101579.41;;;9.46;81.01
72414;BME280;60995;52.154;4.498;2023-04-21T00:50:52;101567.63;;;9.47;81.18
72414;BME280;60995;52.154;4.498;2023-04-21T00:53:08;101562.34;;;9.32;80.82
72414;BME280;60995;52.154;4.498;2023-04-21T00:55:27;101534.88;;;9.50;80.99
72414;BME280;60995;52.154;4.498;2023-04-21T00:57:44;101549.38;;;9.49;80.54
72414;BME280;60995;52.154;4.498;2023-04-21T01:00:01;101554.38;;;9.55;80.80
72414;BME280;60995;52.154;4.498;2023-04-21T01:02:18;101551.78;;;9.53;81.04
72414;BME280;60995;52.154;4.498;2023-04-21T01:04:35;101547.81;;;9.33;81.39
72414;BME280;60995;52.154;4.498;2023-04-21T01:06:54;101542.47;;;9.44;81.51
72414;BME280;60995;52.154;4.498;2023-04-21T01:09:10;101552.09;;;9.49;81.29
72414;BME280;60995;52.154;4.498;2023-04-21T01:11:29;101548.66;;;9.47;81.50
72414;BME280;60995;52.154;4.498;2023-04-21T01:13:46;101548.69;;;9.58;81.18
72414;BME280;60995;52.154;4.498;2023-04-21T01:16:03;101546.91;;;9.46;81.33
72414;BME280;60995;52.154;4.498;2023-04-21T01:18:20;101543.56;;;9.42;81.47
72414;BME280;60995;52.154;4.498;2023-04-21T01:20:37;101555.72;;;9.36;82.09
72414;BME280;60995;52.154;4.498;2023-04-21T01:22:53;101541.25;;;9.49;81.56
72414;BME280;60995;52.154;4.498;2023-04-21T01:25:10;101538.56;;;9.49;81.76
72414;BME280;60995;52.154;4.498;2023-04-21T01:27:26;101535.50;;;9.53;81.77
72414;BME280;60995;52.154;4.498;2023-04-21T01:29:44;101536.50;;;9.52;81.97
72414;BME280;60995;52.154;4.498;2023-04-21T01:32:11;101539.53;;;9.48;81.50
72414;BME280;60995;52.154;4.498;2023-04-21T01:34:29;101531.59;;;9.57;81.77
72414;BME280;60995;52.154;4.498;2023-04-21T01:36:46;101532.84;;;9.40;81.96
72414;BME280;60995;52.154;4.498;2023-04-21T01:39:02;101540.72;;;9.43;82.06
72414;BME280;60995;52.154;4.498;2023-04-21T01:41:19;101545.56;;;9.27;82.86
72414;BME280;60995;52.154;4.498;2023-04-21T01:43:36;101546.41;;;9.27;82.95
72414;BME280;60995;52.154;4.498;2023-04-21T01:45:52;101529.72;;;9.34;82.85
72414;BME280;60995;52.154;4.498;2023-04-21T01:48:09;101535.47;;;9.29;82.92
72414;BME280;60995;52.154;4.498;2023-04-21T01:50:25;101530.16;;;9.27;83.36
72414;BME280;60995;52.154;4.498;2023-04-21T01:52:41;101532.56;;;9.32;83.17
72414;BME280;60995;52.154;4.498;2023-04-21T01:54:58;101528.66;;;9.23;83.43
72414;BME280;60995;52.154;4.498;2023-04-21T01:57:16;101527.34;;;9.29;83.45
72414;BME280;60995;52.154;4.498;2023-04-21T01:59:33;101519.16;;;9.18;83.58
72414;BME280;60995;52.154;4.498;2023-04-21T02:01:49;101517.88;;;9.10;83.71
72414;BME280;60995;52.154;4.498;2023-04-21T02:04:05;101508.97;;;9.08;83.93
72414;BME280;60995;52.154;4.498;2023-04-21T02:06:22;101507.44;;;9.17;83.86
72414;BME280;60995;52.154;4.498;2023-04-21T02:08:38;101508.34;;;9.18;83.68
72414;BME280;60995;52.154;4.498;2023-04-21T02:10:54;101499.19;;;9.19;83.78
72414;BME280;60995;52.154;4.498;2023-04-21T02:13:11;101495.53;;;9.20;83.92
72414;BME280;60995;52.154;4.498;2023-04-21T02:15:27;101508.00;;;9.09;84.05
72414;BME280;60995;52.154;4.498;2023-04-21T02:17:43;101497.16;;;9.22;84.11
72414;BME280;60995;52.154;4.498;2023-04-21T02:19:59;101500.50;;;9.26;83.79
72414;BME280;60995;52.154;4.498;2023-04-21T02:22:16;101494.03;;;9.16;83.74
72414;BME280;60995;52.154;4.498;2023-04-21T02:24:33;101499.44;;;9.16;84.18
72414;BME280;60995;52.154;4.498;2023-04-21T02:26:49;101498.47;;;9.17;84.27
72414;BME280;60995;52.154;4.498;2023-04-21T02:29:06;101494.03;;;9.16;84.33
72414;BME280;60995;52.154;4.498;2023-04-21T02:31:22;101499.19;;;9.19;84.40
72414;BME280;60995;52.154;4.498;2023-04-21T02:33:39;101502.28;;;9.14;84.69
72414;BME280;60995;52.154;4.498;2023-04-21T02:35:56;101503.41;;;9.23;84.86
72414;BME280;60995;52.154;4.498;2023-04-21T02:38:12;101498.72;;;9.38;84.33
72414;BME280;60995;52.154;4.498;2023-04-21T02:40:28;101500.50;;;9.26;84.40
72414;BME280;60995;52.154;4.498;2023-04-21T02:42:45;101504.22;;;9.12;85.07
72414;BME280;60995;52.154;4.498;2023-04-21T02:45:01;101501.84;;;9.07;85.09
72414;BME280;60995;52.154;4.498;2023-04-21T02:47:18;101503.78;;;9.05;85.13
72414;BME280;60995;52.154;4.498;2023-04-21T02:49:39;101500.09;;;9.19;84.96
72414;BME280;60995;52.154;4.498;2023-04-21T02:51:58;101481.47;;;9.15;84.60
72414;BME280;60995;52.154;4.498;2023-04-21T02:54:14;101479.97;;;9.10;85.23
72414;BME280;60995;52.154;4.498;2023-04-21T02:56:30;101487.13;;;8.99;85.32
72414;BME280;60995;52.154;4.498;2023-04-21T02:58:49;101473.97;;;9.18;85.34
72414;BME280;60995;52.154;4.498;2023-04-21T03:01:05;101470.63;;;9.15;84.89
72414;BME280;60995;52.154;4.498;2023-04-21T03:03:22;101461.13;;;9.33;84.91
72414;BME280;60995;52.154;4.498;2023-04-21T03:05:38;101464.53;;;9.24;85.11
72414;BME280;60995;52.154;4.498;2023-04-21T03:07:54;101468.75;;;9.28;84.81
72414;BME280;60995;52.154;4.498;2023-04-21T03:10:11;101477.56;;;9.06;85.37
72414;BME280;60995;52.154;4.498;2023-04-21T03:12:27;101459.69;;;9.16;85.78
72414;BME280;60995;52.154;4.498;2023-04-21T03:14:43;101473.91;;;9.07;85.44
72414;BME280;60995;52.154;4.498;2023-04-21T03:17:00;101471.28;;;9.18;85.75
72414;BME280;60995;52.154;4.498;2023-04-21T03:19:17;101468.69;;;9.17;85.19
72414;BME280;60995;52.154;4.498;2023-04-21T03:21:36;101470.09;;;9.09;85.54
72414;BME280;60995;52.154;4.498;2023-04-21T03:23:53;101471.31;;;9.05;85.67
72414;BME280;60995;52.154;4.498;2023-04-21T03:26:10;101479.53;;;9.17;86.13
72414;BME280;60995;52.154;4.498;2023-04-21T03:28:29;101474.25;;;9.02;85.71
72414;BME280;60995;52.154;4.498;2023-04-21T03:30:46;101478.75;;;9.15;85.85
72414;BME280;60995;52.154;4.498;2023-04-21T03:33:03;101471.31;;;9.05;85.74
72414;BME280;60995;52.154;4.498;2023-04-21T03:35:20;101478.03;;;9.13;85.85
72414;BME280;60995;52.154;4.498;2023-04-21T03:37:37;101466.53;;;9.09;85.97
72414;BME280;60995;52.154;4.498;2023-04-21T03:39:53;101469.50;;;9.30;86.10
72414;BME280;60995;52.154;4.498;2023-04-21T03:42:10;101457.00;;;9.03;85.87
72414;BME280;60995;52.154;4.498;2023-04-21T03:44:26;101450.28;;;9.09;85.76
72414;BME280;60995;52.154;4.498;2023-04-21T03:46:43;101467.44;;;8.84;86.73
72414;BME280;60995;52.154;4.498;2023-04-21T03:49:00;101447.22;;;9.14;86.33
72414;BME280;60995;52.154;4.498;2023-04-21T03:51:17;101453.22;;;9.06;86.12
72414;BME280;60995;52.154;4.498;2023-04-21T03:53:33;101439.50;;;8.96;85.93
72414;BME280;60995;52.154;4.498;2023-04-21T03:55:49;101442.09;;;8.98;86.54
72414;BME280;60995;52.154;4.498;2023-04-21T03:58:06;101431.91;;;9.01;86.27
72414;BME280;60995;52.154;4.498;2023-04-21T04:00:22;101428.44;;;8.99;86.28
72414;BME280;60995;52.154;4.498;2023-04-21T04:02:39;101427.16;;;9.05;86.25
72414;BME280;60995;52.154;4.498;2023-04-21T04:04:55;101432.72;;;9.15;86.16
72414;BME280;60995;52.154;4.498;2023-04-21T04:07:12;101422.34;;;9.08;86.12
72414;BME280;60995;52.154;4.498;2023-04-21T04:09:28;101422.81;;;9.02;86.43
72414;BME280;60995;52.154;4.498;2023-04-21T04:11:47;101425.63;;;9.01;86.36
72414;BME280;60995;52.154;4.498;2023-04-21T04:14:04;101425.16;;;9.07;86.58
72414;BME280;60995;52.154;4.498;2023-04-21T04:16:20;101425.38;;;9.17;86.44
72414;BME280;60995;52.154;4.498;2023-04-21T04:18:36;101414.53;;;9.17;86.01
72414;BME280;60995;52.154;4.498;2023-04-21T04:20:53;101416.31;;;9.05;86.19
72414;BME280;60995;52.154;4.498;2023-04-21T04:23:09;101418.22;;;9.16;86.37
72414;BME280;60995;52.154;4.498;2023-04-21T04:25:26;101422.31;;;9.21;86.02
72414;BME280;60995;52.154;4.498;2023-04-21T04:27:42;101420.81;;;9.17;86.09
72414;BME280;60995;52.154;4.498;2023-04-21T04:30:00;101423.63;;;9.16;86.30
72414;BME280;60995;52.154;4.498;2023-04-21T04:32:16;101420.16;;;9.14;86.19
72414;BME280;60995;52.154;4.498;2023-04-21T04:34:37;101412.34;;;9.22;86.05
72414;BME280;60995;52.154;4.498;2023-04-21T04:36:54;101412.81;;;9.16;85.80
72414;BME280;60995;52.154;4.498;2023-04-21T04:39:12;101409.41;;;9.25;85.95
72414;BME280;60995;52.154;4.498;2023-04-21T04:41:29;101404.31;;;9.20;86.11
72414;BME280;60995;52.154;4.498;2023-04-21T04:43:45;101416.84;;;9.34;85.81
72414;BME280;60995;52.154;4.498;2023-04-21T04:46:02;101417.81;;;9.33;85.27
72414;BME280;60995;52.154;4.498;2023-04-21T04:48:18;101419.34;;;9.37;85.57
72414;BME280;60995;52.154;4.498;2023-04-21T04:50:35;101422.03;;;9.37;85.79
72414;BME280;60995;52.154;4.498;2023-04-21T04:52:51;101427.03;;;9.31;85.47
72414;BME280;60995;52.154;4.498;2023-04-21T04:55:08;101426.69;;;9.35;85.57
72414;BME280;60995;52.154;4.498;2023-04-21T04:57:24;101425.22;;;9.42;85.72
72414;BME280;60995;52.154;4.498;2023-04-21T04:59:40;101423.75;;;9.38;85.52
72414;BME280;60995;52.154;4.498;2023-04-21T05:01:57;101423.75;;;9.38;85.37
72414;BME280;60995;52.154;4.498;2023-04-21T05:04:13;101440.22;;;9.35;85.65
72414;BME280;60995;52.154;4.498;2023-04-21T05:06:31;101439.53;;;9.44;85.75
72414;BME280;60995;52.154;4.498;2023-04-21T05:08:48;101443.75;;;9.24;86.08
72414;BME280;60995;52.154;4.498;2023-04-21T05:11:04;101438.28;;;9.37;85.77
72414;BME280;60995;52.154;4.498;2023-04-21T05:13:21;101445.25;;;9.29;86.04
72414;BME280;60995;52.154;4.498;2023-04-21T05:15:37;101433.31;;;9.31;86.20
72414;BME280;60995;52.154;4.498;2023-04-21T05:17:54;101430.91;;;9.39;85.92
72414;BME280;60995;52.154;4.498;2023-04-21T05:20:10;101442.13;;;9.46;86.31
72414;BME280;60995;52.154;4.498;2023-04-21T05:22:27;101431.69;;;9.53;85.68
72414;BME280;60995;52.154;4.498;2023-04-21T05:24:43;101437.88;;;9.55;85.29
72414;BME280;60995;52.154;4.498;2023-04-21T05:27:00;101431.28;;;9.46;85.90
72414;BME280;60995;52.154;4.498;2023-04-21T05:29:17;101435.72;;;9.47;85.54
72414;BME280;60995;52.154;4.498;2023-04-21T05:31:34;101438.19;;;9.50;85.71
72414;BME280;60995;52.154;4.498;2023-04-21T05:33:50;101436.19;;;9.65;85.35
72414;BME280;60995;52.154;4.498;2023-04-21T05:36:07;101424.13;;;9.69;84.65
72414;BME280;60995;52.154;4.498;2023-04-21T05:38:25;101441.09;;;9.60;84.52
72414;BME280;60995;52.154;4.498;2023-04-21T05:40:42;101447.50;;;9.59;85.11
72414;BME280;60995;52.154;4.498;2023-04-21T05:42:58;101443.84;;;9.71;85.13
72414;BME280;60995;52.154;4.498;2023-04-21T05:45:15;101447.19;;;9.75;84.82
72414;BME280;60995;52.154;4.498;2023-04-21T05:47:31;101438.00;;;9.89;84.80
72414;BME280;60995;52.154;4.498;2023-04-21T05:49:50;101448.84;;;9.89;84.16
72414;BME280;60995;52.154;4.498;2023-04-21T05:52:08;101442.06;;;9.94;84.38
72414;BME280;60995;52.154;4.498;2023-04-21T05:54:25;101455.09;;;9.89;84.08
72414;BME280;60995;52.154;4.498;2023-04-21T05:56:41;101458.19;;;9.85;84.24
72414;BME280;60995;52.154;4.498;2023-04-21T05:58:58;101447.91;;;10.01;84.01
72414;BME280;60995;52.154;4.498;2023-04-21T06:01:14;101452.09;;;10.17;83.69
72414;BME280;60995;52.154;4.498;2023-04-21T06:03:31;101449.91;;;10.10;83.53
72414;BME280;60995;52.154;4.498;2023-04-21T06:05:53;101449.94;;;9.86;83.44
72414;BME280;60995;52.154;4.498;2023-04-21T06:08:10;101446.16;;;10.00;83.62
72414;BME280;60995;52.154;4.498;2023-04-21T06:10:26;101452.06;;;10.41;83.59
72414;BME280;60995;52.154;4.498;2023-04-21T06:12:42;101441.34;;;10.39;82.72
72414;BME280;60995;52.154;4.498;2023-04-21T06:14:59;101444.06;;;10.39;82.86
72414;BME280;60995;52.154;4.498;2023-04-21T06:17:16;101448.50;;;10.52;82.01
72414;BME280;60995;52.154;4.498;2023-04-21T06:19:36;101443.78;;;10.31;82.21
72414;BME280;60995;52.154;4.498;2023-04-21T06:21:55;101450.47;;;10.38;82.49
72414;BME280;60995;52.154;4.498;2023-04-21T06:24:12;101456.81;;;10.15;83.33
72414;BME280;60995;52.154;4.498;2023-04-21T06:26:29;101460.94;;;9.96;84.10
72414;BME280;60995;52.154;4.498;2023-04-21T06:28:45;101464.66;;;10.42;83.63
72414;BME280;60995;52.154;4.498;2023-04-21T06:31:02;101461.00;;;10.19;83.06
72414;BME280;60995;52.154;4.498;2023-04-21T06:33:19;101461.97;;;10.06;83.98
72414;BME280;60995;52.154;4.498;2023-04-21T06:35:35;101466.16;;;10.10;84.08
72414;BME280;60995;52.154;4.498;2023-04-21T06:37:51;101469.16;;;9.94;84.26
72414;BME280;60995;52.154;4.498;2023-04-21T06:40:08;101459.91;;;10.21;84.02
72414;BME280;60995;52.154;4.498;2023-04-21T06:42:27;101458.38;;;10.53;83.54
72414;BME280;60995;52.154;4.498;2023-04-21T06:44:43;101457.75;;;10.49;82.94
72414;BME280;60995;52.154;4.498;2023-04-21T06:46:59;101448.59;;;10.39;83.30
72414;BME280;60995;52.154;4.498;2023-04-21T06:49:16;101453.94;;;10.40;83.53
72414;BME280;60995;52.154;4.498;2023-04-21T06:51:32;101452.91;;;10.41;82.88
72414;BME280;60995;52.154;4.498;2023-04-21T06:53:54;101456.88;;;10.49;83.06
72414;BME280;60995;52.154;4.498;2023-04-21T06:56:11;101452.53;;;10.23;84.20
72414;BME280;60995;52.154;4.498;2023-04-21T06:58:27;101455.03;;;10.38;84.11
72414;BME280;60995;52.154;4.498;2023-04-21T07:00:43;101449.09;;;10.44;83.31
72414;BME280;60995;52.154;4.498;2023-04-21T07:03:00;101444.06;;;10.73;83.49
72414;BME280;60995;52.154;4.498;2023-04-21T07:05:16;101444.78;;;11.09;81.82
72414;BME280;60995;52.154;4.498;2023-04-21T07:07:35;101443.69;;;10.89;81.67
72414;BME280;60995;52.154;4.498;2023-04-21T07:09:51;101437.13;;;11.15;80.62
72414;BME280;60995;52.154;4.498;2023-04-21T07:12:07;101440.09;;;11.55;79.46
72414;BME280;60995;52.154;4.498;2023-04-21T07:14:23;101440.31;;;11.85;77.66
72414;BME280;60995;52.154;4.498;2023-04-21T07:16:40;101415.53;;;12.41;74.64
72414;BME280;60995;52.154;4.498;2023-04-21T07:18:57;101418.47;;;13.00;75.20
72414;BME280;60995;52.154;4.498;2023-04-21T07:21:13;101424.41;;;14.23;70.49
72414;BME280;60995;52.154;4.498;2023-04-21T07:23:30;101424.00;;;12.89;71.16
72414;BME280;60995;52.154;4.498;2023-04-21T07:25:54;101422.59;;;12.23;73.85
72414;BME280;60995;52.154;4.498;2023-04-21T07:28:10;101438.66;;;11.94;75.62
72414;BME280;60995;52.154;4.498;2023-04-21T07:30:30;101431.28;;;11.96;75.32
72414;BME280;60995;52.154;4.498;2023-04-21T07:32:46;101421.66;;;12.13;75.65
72414;BME280;60995;52.154;4.498;2023-04-21T07:35:03;101407.03;;;11.71;76.60
72414;BME280;60995;52.154;4.498;2023-04-21T07:37:20;101420.53;;;12.15;76.01
72414;BME280;60995;52.154;4.498;2023-04-21T07:39:40;101418.56;;;12.89;74.07
72414;BME280;60995;52.154;4.498;2023-04-21T07:41:56;101426.09;;;12.35;73.63
72414;BME280;60995;52.154;4.498;2023-04-21T07:44:12;101428.03;;;12.23;74.52
72414;BME280;60995;52.154;4.498;2023-04-21T07:46:29;101420.47;;;12.05;74.97
72414;BME280;60995;52.154;4.498;2023-04-21T07:48:46;101435.25;;;11.59;76.67
72414;BME280;60995;52.154;4.498;2023-04-21T07:51:03;101436.38;;;11.56;76.25
72414;BME280;60995;52.154;4.498;2023-04-21T07:53:28;101443.34;;;11.70;76.86
72414;BME280;60995;52.154;4.498;2023-04-21T07:55:45;101435.00;;;11.62;77.80
72414;BME280;60995;52.154;4.498;2023-04-21T07:58:03;101447.78;;;11.71;76.56
72414;BME280;60995;52.154;4.498;2023-04-21T08:00:20;101450.34;;;11.52;76.19
72414;BME280;60995;52.154;4.498;2023-04-21T08:02:37;101439.91;;;11.68;75.55
72414;BME280;60995;52.154;4.498;2023-04-21T08:04:53;101432.69;;;11.79;74.15
72414;BME280;60995;52.154;4.498;2023-04-21T08:07:10;101427.91;;;12.03;73.58
72414;BME280;60995;52.154;4.498;2023-04-21T08:09:28;101423.13;;;12.17;72.80
72414;BME280;60995;52.154;4.498;2023-04-21T08:11:44;101433.78;;;12.30;71.44
72414;BME280;60995;52.154;4.498;2023-04-21T08:14:02;101434.81;;;12.07;72.42
72414;BME280;60995;52.154;4.498;2023-04-21T08:16:18;101424.94;;;12.68;70.98
72414;BME280;60995;52.154;4.498;2023-04-21T08:18:35;101419.56;;;13.38;68.39
72414;BME280;60995;52.154;4.498;2023-04-21T08:20:52;101427.22;;;13.04;68.62
72414;BME280;60995;52.154;4.498;2023-04-21T08:23:10;101418.63;;;13.08;69.82
72414;BME280;60995;52.154;4.498;2023-04-21T08:25:27;101423.03;;;13.70;68.45
72414;BME280;60995;52.154;4.498;2023-04-21T08:27:43;101419.81;;;14.61;65.76
72414;BME280;60995;52.154;4.498;2023-04-21T08:29:59;101421.75;;;14.88;62.85
72414;BME280;60995;52.154;4.498;2023-04-21T08:32:16;101420.69;;;14.99;62.81
72414;BME280;60995;52.154;4.498;2023-04-21T08:34:38;101429.31;;;14.10;65.10
72414;BME280;60995;52.154;4.498;2023-04-21T08:36:54;101421.59;;;13.76;65.74
72414;BME280;60995;52.154;4.498;2023-04-21T08:39:11;101429.34;;;13.70;66.13
72414;BME280;60995;52.154;4.498;2023-04-21T08:41:28;101425.63;;;13.91;65.64
72414;BME280;60995;52.154;4.498;2023-04-21T08:43:44;101421.47;;;15.74;62.88
72414;BME280;60995;52.154;4.498;2023-04-21T08:46:05;101416.75;;;16.89;55.42
72414;BME280;60995;52.154;4.498;2023-04-21T08:48:23;101411.19;;;16.12;56.40
72414;BME280;60995;52.154;4.498;2023-04-21T08:50:42;101418.19;;;15.70;57.44
72414;BME280;60995;52.154;4.498;2023-04-21T08:53:01;101417.78;;;14.73;59.85
72414;BME280;60995;52.154;4.498;2023-04-21T08:55:18;101408.78;;;14.53;61.34
72414;BME280;60995;52.154;4.498;2023-04-21T08:57:35;101408.38;;;14.48;61.13
72414;BME280;60995;52.154;4.498;2023-04-21T08:59:52;101412.66;;;15.16;59.73
72414;BME280;60995;52.154;4.498;2023-04-21T09:02:10;101401.41;;;16.35;58.67
72414;BME280;60995;52.154;4.498;2023-04-21T09:04:29;101408.34;;;16.48;56.80
72414;BME280;60995;52.154;4.498;2023-04-21T09:06:46;101406.28;;;17.27;52.66
72414;BME280;60995;52.154;4.498;2023-04-21T09:09:02;101407.69;;;18.39;51.24
72414;BME280;60995;52.154;4.498;2023-04-21T09:11:20;101393.66;;;20.74;47.97
72414;BME280;60995;52.154;4.498;2023-04-21T09:13:37;101396.28;;;20.22;45.39
72414;BME280;60995;52.154;4.498;2023-04-21T09:15:53;101394.25;;;19.78;44.78
72414;BME280;60995;52.154;4.498;2023-04-21T09:18:21;101403.53;;;18.51;49.03
72414;BME280;60995;52.154;4.498;2023-04-21T09:20:41;101399.38;;;17.07;51.98
72414;BME280;60995;52.154;4.498;2023-04-21T09:23:03;101393.31;;;17.71;50.58
72414;BME280;60995;52.154;4.498;2023-04-21T09:25:21;101402.47;;;16.69;51.58
72414;BME280;60995;52.154;4.498;2023-04-21T09:27:40;101385.72;;;16.46;53.47
72414;BME280;60995;52.154;4.498;2023-04-21T09:30:04;101394.47;;;16.84;51.70
72414;BME280;60995;52.154;4.498;2023-04-21T09:32:22;101393.72;;;16.74;52.02
72414;BME280;60995;52.154;4.498;2023-04-21T09:34:41;101394.00;;;16.28;54.14
72414;BME280;60995;52.154;4.498;2023-04-21T09:37:00;101386.22;;;16.76;54.49
72414;BME280;60995;52.154;4.498;2023-04-21T09:39:21;101393.66;;;17.59;50.55
72414;BME280;60995;52.154;4.498;2023-04-21T09:41:38;101389.22;;;17.99;49.14
72414;BME280;60995;52.154;4.498;2023-04-21T09:43:55;101394.69;;;18.08;49.78
72414;BME280;60995;52.154;4.498;2023-04-21T09:46:19;101400.41;;;16.71;51.27
72414;BME280;60995;52.154;4.498;2023-04-21T09:48:43;101381.63;;;17.35;49.92
72414;BME280;60995;52.154;4.498;2023-04-21T09:51:00;101376.69;;;17.89;49.37
72414;BME280;60995;52.154;4.498;2023-04-21T09:53:19;101372.78;;;18.95;46.51
72414;BME280;60995;52.154;4.498;2023-04-21T09:55:40;101376.84;;;18.68;46.70
72414;BME280;60995;52.154;4.498;2023-04-21T09:57:59;101382.03;;;19.57;44.07
72414;BME280;60995;52.154;4.498;2023-04-21T10:00:18;101364.22;;;18.50;47.38
72414;BME280;60995;52.154;4.498;2023-04-21T10:02:48;101368.03;;;19.21;47.13
72414;BME280;60995;52.154;4.498;2023-04-21T10:05:07;101373.97;;;18.53;47.72
72414;BME280;60995;52.154;4.498;2023-04-21T10:07:28;101388.66;;;16.18;51.45
72414;BME280;60995;52.154;4.498;2023-04-21T10:09:50;101379.50;;;15.83;53.28
72414;BME280;60995;52.154;4.498;2023-04-21T10:12:10;101373.56;;;16.83;52.21
72414;BME280;60995;52.154;4.498;2023-04-21T10:14:28;101370.66;;;17.85;50.15
72414;BME280;60995;52.154;4.498;2023-04-21T10:16:55;101374.34;;;18.50;48.59
72414;BME280;60995;52.154;4.498;2023-04-21T10:19:23;101377.72;;;18.12;49.43
72414;BME280;60995;52.154;4.498;2023-04-21T10:21:41;101367.03;;;18.09;49.69
72414;BME280;60995;52.154;4.498;2023-04-21T10:23:57;101366.34;;;18.72;48.23
72414;BME280;60995;52.154;4.498;2023-04-21T10:26:21;101369.94;;;17.25;52.05
72414;BME280;60995;52.154;4.498;2023-04-21T10:31:15;101350.41;;;16.69;54.37
72414;BME280;60995;52.154;4.498;2023-04-21T10:33:38;101358.97;;;17.33;52.73
72414;BME280;60995;52.154;4.498;2023-04-21T10:36:01;101352.16;;;17.46;51.52
72414;BME280;60995;52.154;4.498;2023-04-21T10:38:40;101351.72;;;17.08;52.47
72414;BME280;60995;52.154;4.498;2023-04-21T10:41:24;101348.69;;;17.19;53.02
72414;BME280;60995;52.154;4.498;2023-04-21T10:43:43;101340.97;;;17.80;52.41
72414;BME280;60995;52.154;4.498;2023-04-21T10:48:54;101334.63;;;17.39;51.77
72414;BME280;60995;52.154;4.498;2023-04-21T10:51:21;101335.00;;;17.60;52.08
72414;BME280;60995;52.154;4.498;2023-04-21T10:53:43;101333.75;;;17.30;52.50
72414;BME280;60995;52.154;4.498;2023-04-21T10:56:00;101332.06;;;16.69;54.56
72414;BME280;60995;52.154;4.498;2023-04-21T10:58:20;101325.50;;;16.54;54.36
72414;BME280;60995;52.154;4.498;2023-04-21T11:00:39;101322.97;;;17.20;53.58
72414;BME280;60995;52.154;4.498;2023-04-21T11:03:01;101329.16;;;17.55;51.00
72414;BME280;60995;52.154;4.498;2023-04-21T11:05:18;101331.88;;;17.14;52.26
72414;BME280;60995;52.154;4.498;2023-04-21T11:07:36;101326.25;;;17.48;51.58
72414;BME280;60995;52.154;4.498;2023-04-21T11:10:00;101316.97;;;17.66;49.98
72414;BME280;60995;52.154;4.498;2023-04-21T11:12:20;101316.81;;;17.59;50.25
72414;BME280;60995;52.154;4.498;2023-04-21T11:14:39;101314.00;;;18.25;48.42
72414;BME280;60995;52.154;4.498;2023-04-21T11:16:56;101319.06;;;17.64;50.77
72414;BME280;60995;52.154;4.498;2023-04-21T11:19:14;101313.75;;;17.46;51.21
72414;BME280;60995;52.154;4.498;2023-04-21T11:21:30;101301.50;;;18.06;49.26
72414;BME280;60995;52.154;4.498;2023-04-21T11:23:50;101307.53;;;17.19;51.94
72414;BME280;60995;52.154;4.498;2023-04-21T11:26:08;101299.00;;;17.55;52.00
72414;BME280;60995;52.154;4.498;2023-04-21T11:28:24;101291.66;;;18.99;48.27
72414;BME280;60995;52.154;4.498;2023-04-21T11:30:41;101280.91;;;19.13;48.35
72414;BME280;60995;52.154;4.498;2023-04-21T11:32:57;101285.78;;;19.87;46.73
72414;BME280;60995;52.154;4.498;2023-04-21T11:35:14;101290.63;;;19.85;47.08
72414;BME280;60995;52.154;4.498;2023-04-21T11:37:32;101290.56;;;19.93;47.12
72414;BME280;60995;52.154;4.498;2023-04-21T11:39:49;101276.81;;;19.09;47.66
72414;BME280;60995;52.154;4.498;2023-04-21T11:42:19;101284.34;;;18.52;49.50
72414;BME280;60995;52.154;4.498;2023-04-21T11:44:39;101271.53;;;18.67;48.04
72414;BME280;60995;52.154;4.498;2023-04-21T11:46:57;101280.94;;;18.50;49.38
72414;BME280;60995;52.154;4.498;2023-04-21T11:49:15;101278.34;;;17.92;50.89
72414;BME280;60995;52.154;4.498;2023-04-21T11:51:36;101266.28;;;18.18;50.04
72414;BME280;60995;52.154;4.498;2023-04-21T11:53:57;101250.91;;;18.00;50.14
72414;BME280;60995;52.154;4.498;2023-04-21T11:56:19;101262.78;;;17.93;50.72
72414;BME280;60995;52.154;4.498;2023-04-21T11:58:39;101262.47;;;18.27;49.61
72414;BME280;60995;52.154;4.498;2023-04-21T12:00:55;101245.41;;;18.72;48.41
72414;BME280;60995;52.154;4.498;2023-04-21T12:03:12;101255.47;;;19.11;47.75
72414;BME280;60995;52.154;4.498;2023-04-21T12:05:35;101268.66;;;18.61;48.24
72414;BME280;60995;52.154;4.498;2023-04-21T12:07:54;101258.47;;;17.90;49.66
72414;BME280;60995;52.154;4.498;2023-04-21T12:10:13;101254.34;;;17.94;49.77